sensor_id;sensor_type;location;lat;lon;timestamp;pressure;altitude;pressure_sealevel;temperature;humidity
19789;BME280;10054;59.332;18.244;2023-02-14T00:01:54;102404.50;;;3.95;100.00
19789;BME280;10054;59.332;18.244;2023-02-14T00:04:23;102404.06;;;3.95;100.00
19789;BME280;10054;59.332;18.244;2023-02-14T00:06:52;102396.67;;;3.93;100.00
19789;BME280;10054;59.332;18.244;2023-02-14T00:09:21;102402.78;;;3.91;100.00
19789;BME280;10054;59.332;18.244;2023-02-14T00:11:50;102404.12;;;3.86;100.00
19789;BME280;10054;59.332;18.244;2023-02-14T00:14:19;102409.78;;;3.84;100.00
19789;BME280;10054;59.332;18.244;2023-02-14T00:17:06;102418.05;;;3.84;100.00
19789;BME280;10054;59.332;18.244;2023-02-14T00:19:35;102415.47;;;3.79;100.00
19789;BME280;10054;59.332;18.244;2023-02-14T00:22:04;102418.53;;;3.77;100.00
19789;BME280;10054;59.332;18.244;2023-02-14T00:24:33;102416.80;;;3.76;100.00
19789;BME280;10054;59.332;18.244;2023-02-14T00:27:02;102424.63;;;3.75;100.00
19789;BME280;10054;59.332;18.244;2023-02-14T00:29:31;102424.65;;;3.72;100.00
19789;BME280;10054;59.332;18.244;2023-02-14T00:32:02;102417.73;;;3.71;100.00
19789;BME280;10054;59.332;18.244;2023-02-14T00:34:31;102425.13;;;3.68;100.00
19789;BME280;10054;59.332;18.244;2023-02-14T00:37:02;102430.80;;;3.66;100.00
19789;BME280;10054;59.332;18.244;2023-02-14T00:39:31;102434.30;;;3.63;100.00
19789;BME280;10054;59.332;18.244;2023-02-14T00:41:59;102429.08;;;3.62;100.00
19789;BME280;10054;59.332;18.244;2023-02-14T00:44:28;102428.20;;;3.63;100.00
19789;BME280;10054;59.332;18.244;2023-02-14T00:46:57;102426.47;;;3.62;100.00
19789;BME280;10054;59.332;18.244;2023-02-14T00:49:26;102425.60;;;3.61;100.00
19789;BME280;10054;59.332;18.244;2023-02-14T00:51:57;102432.56;;;3.61;100.00
19789;BME280;10054;59.332;18.244;2023-02-14T00:54:26;102444.75;;;3.59;100.00
19789;BME280;10054;59.332;18.244;2023-02-14T00:56:57;102445.63;;;3.56;100.00
19789;BME280;10054;59.332;18.244;2023-02-14T00:59:25;102437.81;;;3.53;100.00
19789;BME280;10054;59.332;18.244;2023-02-14T01:01:54;102437.39;;;3.51;100.00
19789;BME280;10054;59.332;18.244;2023-02-14T01:04:23;102440.88;;;3.48;100.00
19789;BME280;10054;59.332;18.244;2023-02-14T01:06:52;102439.58;;;3.47;100.00
19789;BME280;10054;59.332;18.244;2023-02-14T01:09:21;102436.92;;;3.60;100.00
19789;BME280;10054;59.332;18.244;2023-02-14T01:11:50;102426.91;;;3.60;100.00
19789;BME280;10054;59.332;18.244;2023-02-14T01:14:19;102431.30;;;3.52;100.00
19789;BME280;10054;59.332;18.244;2023-02-14T01:16:49;102426.11;;;3.44;100.00
19789;BME280;10054;59.332;18.244;2023-02-14T01:19:18;102431.34;;;3.40;100.00
19789;BME280;10054;59.332;18.244;2023-02-14T01:21:47;102431.36;;;3.37;100.00
19789;BME280;10054;59.332;18.244;2023-02-14T01:24:16;102439.64;;;3.32;100.00
19789;BME280;10054;59.332;18.244;2023-02-14T01:26:45;102440.95;;;3.27;100.00
19789;BME280;10054;59.332;18.244;2023-02-14T01:29:14;102442.27;;;3.22;100.00
19789;BME280;10054;59.332;18.244;2023-02-14T01:31:42;102432.28;;;3.22;100.00
19789;BME280;10054;59.332;18.244;2023-02-14T01:34:11;102439.69;;;3.16;100.00
19789;BME280;10054;59.332;18.244;2023-02-14T01:36:40;102430.56;;;3.13;100.00
19789;BME280;10054;59.332;18.244;2023-02-14T01:39:13;102431.44;;;3.11;100.00
19789;BME280;10054;59.332;18.244;2023-02-14T01:41:45;102439.27;;;3.11;100.00
19789;BME280;10054;59.332;18.244;2023-02-14T01:46:55;102441.02;;;3.06;100.00
19789;BME280;10054;59.332;18.244;2023-02-14T01:49:38;102454.48;;;3.04;100.00
19789;BME280;10054;59.332;18.244;2023-02-14T01:52:05;102456.23;;;3.00;100.00
19789;BME280;10054;59.332;18.244;2023-02-14T01:54:37;102450.19;;;2.95;100.00
19789;BME280;10054;59.332;18.244;2023-02-14T01:57:07;102448.46;;;2.91;100.00
19789;BME280;10054;59.332;18.244;2023-02-14T01:59:41;102452.38;;;2.91;100.00
19789;BME280;10054;59.332;18.244;2023-02-14T02:02:10;102460.63;;;2.89;100.00
19789;BME280;10054;59.332;18.244;2023-02-14T02:04:41;102474.09;;;2.87;100.00
19789;BME280;10054;59.332;18.244;2023-02-14T02:07:13;102474.97;;;2.86;100.00
19789;BME280;10054;59.332;18.244;2023-02-14T02:09:59;102474.97;;;2.83;100.00
19789;BME280;10054;59.332;18.244;2023-02-14T02:12:28;102482.79;;;2.80;100.00
19789;BME280;10054;59.332;18.244;2023-02-14T02:14:59;102472.80;;;2.78;100.00
19789;BME280;10054;59.332;18.244;2023-02-14T02:23:26;102475.84;;;2.68;100.00
19789;BME280;10054;59.332;18.244;2023-02-14T02:26:08;102480.63;;;2.62;100.00
19789;BME280;10054;59.332;18.244;2023-02-14T02:43:05;102487.55;;;2.39;100.00
19789;BME280;10054;59.332;18.244;2023-02-14T02:45:46;102487.13;;;2.40;100.00
19789;BME280;10054;59.332;18.244;2023-02-14T02:48:18;102489.73;;;2.41;100.00
19789;BME280;10054;59.332;18.244;2023-02-14T02:50:52;102494.07;;;2.45;100.00
19789;BME280;10054;59.332;18.244;2023-02-14T02:56:22;102494.95;;;2.66;100.00
19789;BME280;10054;59.332;18.244;2023-02-14T02:59:27;102492.34;;;2.62;100.00
19789;BME280;10054;59.332;18.244;2023-02-14T03:04:39;102503.20;;;2.60;100.00
19789;BME280;10054;59.332;18.244;2023-02-14T03:10:24;102499.73;;;2.63;100.00
19789;BME280;10054;59.332;18.244;2023-02-14T03:13:24;102494.95;;;2.62;100.00
19789;BME280;10054;59.332;18.244;2023-02-14T03:18:43;102503.20;;;2.70;100.00
19789;BME280;10054;59.332;18.244;2023-02-14T03:21:33;102504.08;;;2.72;100.00
19789;BME280;10054;59.332;18.244;2023-02-14T03:24:13;102509.29;;;2.73;100.00
19789;BME280;10054;59.332;18.244;2023-02-14T03:29:31;102507.12;;;2.76;100.00
19789;BME280;10054;59.332;18.244;2023-02-14T03:32:16;102508.86;;;2.77;100.00
19789;BME280;10054;59.332;18.244;2023-02-14T03:34:55;102504.08;;;2.76;100.00
19789;BME280;10054;59.332;18.244;2023-02-14T03:37:42;102511.03;;;2.76;100.00
19789;BME280;10054;59.332;18.244;2023-02-14T03:40:15;102521.45;;;2.76;100.00
19789;BME280;10054;59.332;18.244;2023-02-14T03:42:52;102513.20;;;2.73;100.00
19789;BME280;10054;59.332;18.244;2023-02-14T03:45:31;102521.45;;;2.73;100.00
19789;BME280;10054;59.332;18.244;2023-02-14T03:48:02;102511.89;;;2.70;100.00
19789;BME280;10054;59.332;18.244;2023-02-14T03:50:32;102516.67;;;2.69;100.00
19789;BME280;10054;59.332;18.244;2023-02-14T03:53:03;102522.31;;;2.70;100.00
19789;BME280;10054;59.332;18.244;2023-02-14T03:55:45;102519.71;;;2.69;100.00
19789;BME280;10054;59.332;18.244;2023-02-14T03:58:19;102525.79;;;2.68;100.00
19789;BME280;10054;59.332;18.244;2023-02-14T04:00:49;102522.31;;;2.69;100.00
19789;BME280;10054;59.332;18.244;2023-02-14T04:03:19;102523.62;;;2.67;100.00
19789;BME280;10054;59.332;18.244;2023-02-14T04:05:49;102521.87;;;2.66;100.00
19789;BME280;10054;59.332;18.244;2023-02-14T04:08:25;102527.09;;;2.66;100.00
19789;BME280;10054;59.332;18.244;2023-02-14T04:10:54;102522.75;;;2.67;100.00
19789;BME280;10054;59.332;18.244;2023-02-14T04:13:23;102522.75;;;2.68;100.00
19789;BME280;10054;59.332;18.244;2023-02-14T04:15:52;102526.66;;;2.70;100.00
19789;BME280;10054;59.332;18.244;2023-02-14T04:18:20;102521.88;;;2.71;100.00
19789;BME280;10054;59.332;18.244;2023-02-14T04:21:07;102527.53;;;2.73;100.00
19789;BME280;10054;59.332;18.244;2023-02-14T04:23:35;102531.01;;;2.75;100.00
19789;BME280;10054;59.332;18.244;2023-02-14T04:26:04;102531.44;;;2.78;100.00
19789;BME280;10054;59.332;18.244;2023-02-14T04:28:33;102528.40;;;2.77;100.00
19789;BME280;10054;59.332;18.244;2023-02-14T04:31:03;102531.87;;;2.79;100.00
19789;BME280;10054;59.332;18.244;2023-02-14T04:33:33;102533.18;;;2.79;100.00
19789;BME280;10054;59.332;18.244;2023-02-14T04:36:01;102534.05;;;2.79;100.00
19789;BME280;10054;59.332;18.244;2023-02-14T04:38:31;102537.95;;;2.79;100.00
19789;BME280;10054;59.332;18.244;2023-02-14T04:41:00;102541.00;;;2.83;100.00
19789;BME280;10054;59.332;18.244;2023-02-14T04:43:28;102539.27;;;2.96;100.00
19789;BME280;10054;59.332;18.244;2023-02-14T04:45:57;102538.39;;;2.97;100.00
19789;BME280;10054;59.332;18.244;2023-02-14T04:48:25;102537.09;;;2.92;100.00
19789;BME280;10054;59.332;18.244;2023-02-14T04:50:54;102534.92;;;2.89;100.00
19789;BME280;10054;59.332;18.244;2023-02-14T04:53:23;102538.83;;;2.89;100.00
19789;BME280;10054;59.332;18.244;2023-02-14T04:55:51;102541.87;;;2.90;100.00
19789;BME280;10054;59.332;18.244;2023-02-14T04:58:20;102545.78;;;2.87;100.00
19789;BME280;10054;59.332;18.244;2023-02-14T05:00:49;102541.00;;;2.86;100.00
19789;BME280;10054;59.332;18.244;2023-02-14T05:03:17;102539.27;;;2.85;100.00
19789;BME280;10054;59.332;18.244;2023-02-14T05:05:46;102535.35;;;2.84;100.00
19789;BME280;10054;59.332;18.244;2023-02-14T05:08:14;102537.09;;;2.83;100.00
19789;BME280;10054;59.332;18.244;2023-02-14T05:10:43;102539.70;;;2.82;100.00
19789;BME280;10054;59.332;18.244;2023-02-14T05:13:12;102543.17;;;2.81;100.00
19789;BME280;10054;59.332;18.244;2023-02-14T05:15:40;102548.38;;;2.81;100.00
19789;BME280;10054;59.332;18.244;2023-02-14T05:18:09;102547.95;;;2.83;100.00
19789;BME280;10054;59.332;18.244;2023-02-14T05:20:37;102536.22;;;2.83;100.00
19789;BME280;10054;59.332;18.244;2023-02-14T05:23:06;102540.56;;;2.82;100.00
19789;BME280;10054;59.332;18.244;2023-02-14T05:25:36;102541.00;;;2.82;100.00
19789;BME280;10054;59.332;18.244;2023-02-14T05:28:05;102543.61;;;2.82;100.00
19789;BME280;10054;59.332;18.244;2023-02-14T05:30:34;102545.78;;;2.81;100.00
19789;BME280;10054;59.332;18.244;2023-02-14T05:33:03;102548.38;;;2.79;100.00
19789;BME280;10054;59.332;18.244;2023-02-14T05:35:32;102548.38;;;2.79;100.00
19789;BME280;10054;59.332;18.244;2023-02-14T05:38:01;102560.11;;;2.78;100.00
19789;BME280;10054;59.332;18.244;2023-02-14T05:40:29;102552.72;;;2.77;100.00
19789;BME280;10054;59.332;18.244;2023-02-14T05:42:59;102554.89;;;2.75;100.00
19789;BME280;10054;59.332;18.244;2023-02-14T05:45:27;102548.81;;;2.73;100.00
19789;BME280;10054;59.332;18.244;2023-02-14T05:47:56;102554.02;;;2.71;100.00
19789;BME280;10054;59.332;18.244;2023-02-14T05:50:26;102561.84;;;2.70;100.00
19789;BME280;10054;59.332;18.244;2023-02-14T05:52:55;102565.75;;;2.70;100.00
19789;BME280;10054;59.332;18.244;2023-02-14T05:55:24;102552.73;;;2.80;100.00
19789;BME280;10054;59.332;18.244;2023-02-14T05:57:52;102555.77;;;2.86;100.00
19789;BME280;10054;59.332;18.244;2023-02-14T06:00:22;102550.12;;;2.79;100.00
19789;BME280;10054;59.332;18.244;2023-02-14T06:02:51;102563.58;;;2.71;100.00
19789;BME280;10054;59.332;18.244;2023-02-14T06:05:19;102562.27;;;2.63;100.00
19789;BME280;10054;59.332;18.244;2023-02-14T06:07:49;102564.86;;;2.57;100.00
19789;BME280;10054;59.332;18.244;2023-02-14T06:10:19;102561.38;;;2.50;100.00
19789;BME280;10054;59.332;18.244;2023-02-14T06:12:49;102560.06;;;2.47;100.00
19789;BME280;10054;59.332;18.244;2023-02-14T06:15:19;102557.02;;;2.43;100.00
19789;BME280;10054;59.332;18.244;2023-02-14T06:17:52;102555.28;;;2.42;100.00
19789;BME280;10054;59.332;18.244;2023-02-14T06:20:23;102560.92;;;2.40;100.00
19789;BME280;10054;59.332;18.244;2023-02-14T06:22:53;102559.61;;;2.40;100.00
19789;BME280;10054;59.332;18.244;2023-02-14T06:25:22;102561.34;;;2.38;100.00
19789;BME280;10054;59.332;18.244;2023-02-14T06:27:56;102566.55;;;2.38;100.00
19789;BME280;10054;59.332;18.244;2023-02-14T06:30:25;102563.52;;;2.37;100.00
19789;BME280;10054;59.332;18.244;2023-02-14T06:32:55;102563.95;;;2.37;100.00
19789;BME280;10054;59.332;18.244;2023-02-14T06:35:23;102560.04;;;2.35;100.00
19789;BME280;10054;59.332;18.244;2023-02-14T06:37:52;102556.13;;;2.35;100.00
19789;BME280;10054;59.332;18.244;2023-02-14T06:40:20;102560.03;;;2.34;100.00
19789;BME280;10054;59.332;18.244;2023-02-14T06:42:50;102563.50;;;2.34;100.00
19789;BME280;10054;59.332;18.244;2023-02-14T06:45:19;102567.84;;;2.32;100.00
19789;BME280;10054;59.332;18.244;2023-02-14T06:47:47;102565.67;;;2.31;100.00
19789;BME280;10054;59.332;18.244;2023-02-14T06:50:16;102570.02;;;2.34;100.00
19789;BME280;10054;59.332;18.244;2023-02-14T06:52:44;102569.59;;;2.36;100.00
19789;BME280;10054;59.332;18.244;2023-02-14T06:55:13;102561.34;;;2.38;100.00
19789;BME280;10054;59.332;18.244;2023-02-14T06:57:42;102571.77;;;2.41;100.00
19789;BME280;10054;59.332;18.244;2023-02-14T07:00:13;102576.13;;;2.48;100.00
19789;BME280;10054;59.332;18.244;2023-02-14T07:02:42;102574.42;;;2.61;100.00
19789;BME280;10054;59.332;18.244;2023-02-14T07:05:11;102569.22;;;2.66;100.00
19789;BME280;10054;59.332;18.244;2023-02-14T07:07:41;102570.95;;;2.67;100.00
19789;BME280;10054;59.332;18.244;2023-02-14T07:10:09;102564.01;;;2.67;100.00
19789;BME280;10054;59.332;18.244;2023-02-14T07:12:38;102570.95;;;2.70;100.00
19789;BME280;10054;59.332;18.244;2023-02-14T07:15:10;102573.14;;;2.73;100.00
19789;BME280;10054;59.332;18.244;2023-02-14T07:17:38;102573.58;;;2.77;100.00
19789;BME280;10054;59.332;18.244;2023-02-14T07:20:08;102577.48;;;2.82;100.00
19789;BME280;10054;59.332;18.244;2023-02-14T07:22:38;102582.27;;;2.87;100.00
19789;BME280;10054;59.332;18.244;2023-02-14T07:25:07;102575.76;;;2.91;100.00
19789;BME280;10054;59.332;18.244;2023-02-14T07:27:36;102577.06;;;2.94;100.00
19789;BME280;10054;59.332;18.244;2023-02-14T07:30:05;102581.38;;;3.00;100.00
19789;BME280;10054;59.332;18.244;2023-02-14T07:32:36;102580.94;;;3.02;100.00
19789;BME280;10054;59.332;18.244;2023-02-14T07:35:06;102584.42;;;3.07;100.00
19789;BME280;10054;59.332;18.244;2023-02-14T07:37:35;102584.85;;;3.11;100.00
19789;BME280;10054;59.332;18.244;2023-02-14T07:40:05;102582.68;;;3.15;100.00
19789;BME280;10054;59.332;18.244;2023-02-14T07:42:34;102590.50;;;3.18;100.00
19789;BME280;10054;59.332;18.244;2023-02-14T07:45:03;102588.33;;;3.22;100.00
19789;BME280;10054;59.332;18.244;2023-02-14T07:47:33;102584.84;;;3.26;100.00
19789;BME280;10054;59.332;18.244;2023-02-14T07:50:02;102590.50;;;3.30;100.00
19789;BME280;10054;59.332;18.244;2023-02-14T07:52:31;102584.40;;;3.39;100.00
19789;BME280;10054;59.332;18.244;2023-02-14T07:54:59;102580.03;;;3.49;100.00
19789;BME280;10054;59.332;18.244;2023-02-14T07:57:28;102591.76;;;3.59;100.00
19789;BME280;10054;59.332;18.244;2023-02-14T07:59:56;102587.82;;;3.70;100.00
19789;BME280;10054;59.332;18.244;2023-02-14T08:02:25;102595.59;;;3.78;100.00
19789;BME280;10054;59.332;18.244;2023-02-14T08:04:53;102590.34;;;3.90;100.00
19789;BME280;10054;59.332;18.244;2023-02-14T08:07:22;102589.00;;;3.99;100.00
19789;BME280;10054;59.332;18.244;2023-02-14T08:09:50;102592.46;;;4.04;100.00
19789;BME280;10054;59.332;18.244;2023-02-14T08:12:19;102591.58;;;4.07;100.00
19789;BME280;10054;59.332;18.244;2023-02-14T08:15:06;102590.72;;;4.06;100.00
19789;BME280;10054;59.332;18.244;2023-02-14T08:17:52;102601.59;;;4.09;100.00
19789;BME280;10054;59.332;18.244;2023-02-14T08:20:21;102595.94;;;4.06;100.00
19789;BME280;10054;59.332;18.244;2023-02-14T08:22:49;102592.47;;;4.03;100.00
19789;BME280;10054;59.332;18.244;2023-02-14T08:25:18;102590.72;;;4.05;100.00
19789;BME280;10054;59.332;18.244;2023-02-14T08:27:48;102601.59;;;4.06;100.00
19789;BME280;10054;59.332;18.244;2023-02-14T08:30:16;102594.20;;;4.05;100.00
19789;BME280;10054;59.332;18.244;2023-02-14T08:32:45;102598.55;;;4.08;100.00
19789;BME280;10054;59.332;18.244;2023-02-14T08:35:13;102593.31;;;4.09;100.00
19789;BME280;10054;59.332;18.244;2023-02-14T08:37:42;102593.75;;;4.09;100.00
19789;BME280;10054;59.332;18.244;2023-02-14T08:40:11;102594.62;;;4.08;100.00
19789;BME280;10054;59.332;18.244;2023-02-14T08:42:40;102596.36;;;4.09;100.00
19789;BME280;10054;59.332;18.244;2023-02-14T08:45:09;102587.64;;;4.11;100.00
19789;BME280;10054;59.332;18.244;2023-02-14T08:47:38;102595.91;;;4.14;100.00
19789;BME280;10054;59.332;18.244;2023-02-14T08:50:09;102588.08;;;4.14;100.00
19789;BME280;10054;59.332;18.244;2023-02-14T08:52:39;102585.02;;;4.16;100.00
19789;BME280;10054;59.332;18.244;2023-02-14T08:55:10;102589.34;;;4.21;100.00
19789;BME280;10054;59.332;18.244;2023-02-14T08:57:40;102594.55;;;4.26;100.00
19789;BME280;10054;59.332;18.244;2023-02-14T09:00:09;102594.97;;;4.28;100.00
19789;BME280;10054;59.332;18.244;2023-02-14T09:02:37;102600.61;;;4.33;100.00
19789;BME280;10054;59.332;18.244;2023-02-14T09:05:06;102599.72;;;4.37;100.00
19789;BME280;10054;59.332;18.244;2023-02-14T09:07:37;102600.58;;;4.39;100.00
19789;BME280;10054;59.332;18.244;2023-02-14T09:10:06;102602.75;;;4.39;100.00
19789;BME280;10054;59.332;18.244;2023-02-14T09:12:40;102601.88;;;4.42;100.00
19789;BME280;10054;59.332;18.244;2023-02-14T09:15:10;102603.98;;;4.48;100.00
19789;BME280;10054;59.332;18.244;2023-02-14T09:17:38;102596.13;;;4.51;100.00
19789;BME280;10054;59.332;18.244;2023-02-14T09:20:10;102603.95;;;4.54;100.00
19789;BME280;10054;59.332;18.244;2023-02-14T09:22:39;102600.87;;;4.59;100.00
19789;BME280;10054;59.332;18.244;2023-02-14T09:25:09;102606.94;;;4.65;100.00
19789;BME280;10054;59.332;18.244;2023-02-14T09:27:38;102613.89;;;4.67;100.00
19789;BME280;10054;59.332;18.244;2023-02-14T09:30:09;102613.41;;;4.74;100.00
19789;BME280;10054;59.332;18.244;2023-02-14T09:32:39;102605.08;;;4.82;100.00
19789;BME280;10054;59.332;18.244;2023-02-14T09:35:08;102609.37;;;4.90;100.00
19789;BME280;10054;59.332;18.244;2023-02-14T09:37:54;102605.45;;;4.92;100.00
19789;BME280;10054;59.332;18.244;2023-02-14T09:40:23;102608.45;;;4.98;100.00
19789;BME280;10054;59.332;18.244;2023-02-14T09:43:05;102600.13;;;5.03;100.00
19789;BME280;10054;59.332;18.244;2023-02-14T09:45:33;102604.01;;;5.09;100.00
19789;BME280;10054;59.332;18.244;2023-02-14T09:48:07;102599.08;;;5.20;100.00
19789;BME280;10054;59.332;18.244;2023-02-14T09:55:53;102597.01;;;5.56;100.00
19789;BME280;10054;59.332;18.244;2023-02-14T09:58:27;102602.15;;;5.65;100.00
19789;BME280;10054;59.332;18.244;2023-02-14T10:03:58;102593.33;;;5.74;100.00
19789;BME280;10054;59.332;18.244;2023-02-14T10:06:40;102592.00;;;5.75;100.00
19789;BME280;10054;59.332;18.244;2023-02-14T10:11:47;102577.92;;;5.85;100.00
19789;BME280;10054;59.332;18.244;2023-02-14T10:14:22;102581.83;;;5.90;100.00
19789;BME280;10054;59.332;18.244;2023-02-14T10:16:56;102579.17;;;5.93;100.00
19789;BME280;10054;59.332;18.244;2023-02-14T10:19:27;102586.98;;;5.94;100.00
19789;BME280;10054;59.332;18.244;2023-02-14T10:22:05;102586.54;;;5.95;100.00
19789;BME280;10054;59.332;18.244;2023-02-14T10:24:38;102582.59;;;5.97;100.00
19789;BME280;10054;59.332;18.244;2023-02-14T10:27:39;102577.78;;;5.98;100.00
19789;BME280;10054;59.332;18.244;2023-02-14T10:30:17;102577.72;;;6.02;100.00
19789;BME280;10054;59.332;18.244;2023-02-14T10:35:22;102583.27;;;6.12;100.00
19789;BME280;10054;59.332;18.244;2023-02-14T10:41:11;102581.84;;;6.21;100.00
19789;BME280;10054;59.332;18.244;2023-02-14T10:44:01;102578.70;;;6.28;100.00
19789;BME280;10054;59.332;18.244;2023-02-14T10:49:45;102580.81;;;6.33;100.00
19789;BME280;10054;59.332;18.244;2023-02-14T10:52:19;102582.95;;;6.37;100.00
19789;BME280;10054;59.332;18.244;2023-02-14T10:54:58;102576.36;;;6.40;100.00
19789;BME280;10054;59.332;18.244;2023-02-14T10:57:42;102582.42;;;6.43;100.00
19789;BME280;10054;59.332;18.244;2023-02-14T11:02:58;102573.56;;;6.52;100.00
19789;BME280;10054;59.332;18.244;2023-02-14T11:10:48;102559.83;;;6.65;98.01
19789;BME280;10054;59.332;18.244;2023-02-14T11:13:34;102563.72;;;6.68;98.86
19789;BME280;10054;59.332;18.244;2023-02-14T11:16:12;102560.57;;;6.71;98.68
19789;BME280;10054;59.332;18.244;2023-02-14T11:18:41;102555.70;;;6.75;97.56
19789;BME280;10054;59.332;18.244;2023-02-14T11:21:15;102557.36;;;6.81;98.10
19789;BME280;10054;59.332;18.244;2023-02-14T11:23:51;102557.31;;;6.84;97.54
19789;BME280;10054;59.332;18.244;2023-02-14T11:26:25;102555.50;;;6.87;97.54
19789;BME280;10054;59.332;18.244;2023-02-14T11:29:02;102552.80;;;6.92;97.85
19789;BME280;10054;59.332;18.244;2023-02-14T11:31:34;102554.52;;;6.95;97.61
19789;BME280;10054;59.332;18.244;2023-02-14T11:34:06;102555.87;;;6.91;97.25
19789;BME280;10054;59.332;18.244;2023-02-14T11:36:39;102555.87;;;6.91;97.04
19789;BME280;10054;59.332;18.244;2023-02-14T11:39:26;102551.07;;;6.91;96.96
19789;BME280;10054;59.332;18.244;2023-02-14T11:41:55;102552.83;;;6.90;96.49
19789;BME280;10054;59.332;18.244;2023-02-14T11:44:26;102543.70;;;6.87;97.32
19789;BME280;10054;59.332;18.244;2023-02-14T11:46:57;102541.52;;;6.87;97.73
19789;BME280;10054;59.332;18.244;2023-02-14T11:49:29;102536.69;;;6.88;98.42
19789;BME280;10054;59.332;18.244;2023-02-14T11:52:07;102533.57;;;6.91;98.11
19789;BME280;10054;59.332;18.244;2023-02-14T11:54:35;102532.63;;;6.96;97.63
19789;BME280;10054;59.332;18.244;2023-02-14T11:59:50;102533.05;;;6.97;97.17
19789;BME280;10054;59.332;18.244;2023-02-14T12:02:39;102530.88;;;6.96;97.22
19789;BME280;10054;59.332;18.244;2023-02-14T12:05:26;102526.94;;;6.96;97.38
19789;BME280;10054;59.332;18.244;2023-02-14T12:07:57;102526.07;;;6.96;96.81
19789;BME280;10054;59.332;18.244;2023-02-14T12:10:32;102525.23;;;6.93;96.63
19789;BME280;10054;59.332;18.244;2023-02-14T12:13:19;102523.45;;;6.96;96.66
19789;BME280;10054;59.332;18.244;2023-02-14T12:21:36;102522.08;;;6.99;96.40
19789;BME280;10054;59.332;18.244;2023-02-14T12:23:59;102518.15;;;6.99;96.09
19789;BME280;10054;59.332;18.244;2023-02-14T12:26:36;102513.73;;;7.01;96.40
19789;BME280;10054;59.332;18.244;2023-02-14T12:29:20;102507.99;;;7.04;96.01
19789;BME280;10054;59.332;18.244;2023-02-14T12:31:49;102507.55;;;7.05;95.42
19789;BME280;10054;59.332;18.244;2023-02-14T12:34:18;102506.62;;;7.07;95.78
19789;BME280;10054;59.332;18.244;2023-02-14T12:40:08;102510.51;;;7.10;95.08
19789;BME280;10054;59.332;18.244;2023-02-14T12:42:47;102506.98;;;7.11;95.09
19789;BME280;10054;59.332;18.244;2023-02-14T12:53:56;102492.95;;;7.14;94.12
19789;BME280;10054;59.332;18.244;2023-02-14T12:56:49;102487.25;;;7.14;94.08
19789;BME280;10054;59.332;18.244;2023-02-14T12:59:39;102477.17;;;7.15;94.23
19789;BME280;10054;59.332;18.244;2023-02-14T13:02:36;102478.93;;;7.15;93.60
19789;BME280;10054;59.332;18.244;2023-02-14T13:08:23;102479.41;;;7.13;93.88
19789;BME280;10054;59.332;18.244;2023-02-14T13:19:00;102478.20;;;7.07;93.93
19789;BME280;10054;59.332;18.244;2023-02-14T13:21:31;102480.38;;;7.07;93.92
19789;BME280;10054;59.332;18.244;2023-02-14T13:24:15;102473.02;;;7.04;93.99
19789;BME280;10054;59.332;18.244;2023-02-14T13:26:47;102479.18;;;7.01;93.64
19789;BME280;10054;59.332;18.244;2023-02-14T13:29:18;102478.29;;;7.02;93.76
19789;BME280;10054;59.332;18.244;2023-02-14T13:31:48;102483.95;;;7.03;93.88
19789;BME280;10054;59.332;18.244;2023-02-14T13:34:29;102485.27;;;7.03;93.70
19789;BME280;10054;59.332;18.244;2023-02-14T13:36:59;102483.53;;;7.02;93.35
19789;BME280;10054;59.332;18.244;2023-02-14T13:43:11;102478.76;;;7.00;93.47
19789;BME280;10054;59.332;18.244;2023-02-14T13:48:09;102483.64;;;6.96;93.08
19789;BME280;10054;59.332;18.244;2023-02-14T13:53:41;102482.86;;;6.91;93.23
19789;BME280;10054;59.332;18.244;2023-02-14T13:59:00;102476.41;;;6.85;93.73
19789;BME280;10054;59.332;18.244;2023-02-14T14:01:37;102473.44;;;6.79;93.78
19789;BME280;10054;59.332;18.244;2023-02-14T14:07:25;102475.70;;;6.75;94.12
19789;BME280;10054;59.332;18.244;2023-02-14T14:15:12;102467.48;;;6.70;94.17
19789;BME280;10054;59.332;18.244;2023-02-14T14:22:59;102461.56;;;6.60;94.67
19789;BME280;10054;59.332;18.244;2023-02-14T14:25:36;102461.64;;;6.55;94.70
19789;BME280;10054;59.332;18.244;2023-02-14T14:28:21;102456.02;;;6.51;94.99
19789;BME280;10054;59.332;18.244;2023-02-14T14:30:46;102454.31;;;6.49;95.47
19789;BME280;10054;59.332;18.244;2023-02-14T14:33:24;102458.77;;;6.44;95.35
19789;BME280;10054;59.332;18.244;2023-02-14T14:35:55;102448.35;;;6.39;95.63
19789;BME280;10054;59.332;18.244;2023-02-14T14:38:25;102454.95;;;6.36;96.10
19789;BME280;10054;59.332;18.244;2023-02-14T14:40:54;102449.39;;;6.29;96.02
19789;BME280;10054;59.332;18.244;2023-02-14T14:43:26;102448.13;;;6.26;96.36
19789;BME280;10054;59.332;18.244;2023-02-14T14:45:56;102448.17;;;6.23;97.20
19789;BME280;10054;59.332;18.244;2023-02-14T14:48:46;102446.51;;;6.17;97.12
19789;BME280;10054;59.332;18.244;2023-02-14T14:51:34;102444.38;;;6.14;98.00
19789;BME280;10054;59.332;18.244;2023-02-14T14:54:18;102442.22;;;6.12;98.88
19789;BME280;10054;59.332;18.244;2023-02-14T14:56:53;102444.89;;;6.09;98.21
19789;BME280;10054;59.332;18.244;2023-02-14T15:01:56;102438.42;;;6.03;99.06
19789;BME280;10054;59.332;18.244;2023-02-14T15:04:30;102440.67;;;5.99;98.68
19789;BME280;10054;59.332;18.244;2023-02-14T15:07:18;102442.91;;;5.94;99.08
19789;BME280;10054;59.332;18.244;2023-02-14T15:09:47;102431.22;;;5.90;99.45
19789;BME280;10054;59.332;18.244;2023-02-14T15:12:19;102438.27;;;5.83;99.29
19789;BME280;10054;59.332;18.244;2023-02-14T15:15:05;102437.48;;;5.77;99.66